ADDS TAF Data INFO
IDs: Format: Raw Decoded Include METARs

Data at: 1934 UTC 17 Jul 2018

KGCK 171854Z 14008KT 10SM CLR 29/19 A3009 RMK AO2 SLP152 T02940189

KGCK 171720Z 1718/1818 11015KT P6SM FEW060 SCT200
  FM180400 14007KT P6SM VCTS SCT040 BKN080CB
  TEMPO 1804/1807 VRB20G40KT 5SM TSRA BKN040CB
  FM180900 17008KT P6SM SCT020 BKN200